Snover, Michigan
Current Conditions -  °F | °C
As of 1:55 PM on Friday 21 Nov 2014 (Local Time) from KBAX Reporting Station
Clear Clear  
Wind Chill: 14°   Ceiling: Unl
Heat Index: 25°   Visibility: 10mi
Dew Point: 11°   Wind: 10mph
Humidity: 57%   Direction: 270°W
Pressure: 30.39"   Gusts: NA
Location:  43.46°N, 82.97°W
Report Text: KBAX 211855Z AUTO 27009KT 10SM CLR M04/M12 A3039 RMK AO2 T10411116
Loading
Personal Weather Stations






























Interactive Weather Map New forecast layout! Learn more

10-Day Weather Forecast

Advertisements
Track Severe Weather on mobile